createdAt,value
2022-08-07T00:04:03.748Z,1.33
2022-08-07T00:18:53.951Z,1.36
2022-08-07T00:33:47.813Z,0.89
2022-08-07T00:48:35.345Z,0.93
2022-08-07T01:03:56.206Z,0.82
2022-08-07T01:18:16.666Z,0.92
2022-08-07T01:33:07.136Z,0.89
2022-08-07T01:48:21.380Z,1.41
2022-08-07T02:03:19.302Z,1.00
2022-08-07T02:17:49.441Z,0.98
2022-08-07T02:33:00.195Z,1.36
2022-08-07T02:47:45.121Z,1.13
2022-08-07T03:02:21.681Z,1.09
2022-08-07T03:17:13.309Z,1.20
2022-08-07T03:32:04.528Z,1.24
2022-08-07T03:47:10.837Z,1.04
2022-08-07T04:01:47.816Z,1.13
2022-08-07T04:16:39.127Z,1.20
2022-08-07T04:31:38.971Z,1.38
2022-08-07T04:47:04.980Z,1.30
2022-08-07T05:01:59.666Z,1.73
2022-08-07T05:16:56.944Z,1.30
2022-08-07T05:31:52.864Z,1.51
2022-08-07T05:46:40.201Z,1.40
2022-08-07T06:01:35.766Z,1.20
2022-08-07T06:16:22.393Z,1.11
2022-08-07T06:31:14.689Z,0.96
2022-08-07T06:46:06.572Z,1.10
2022-08-07T07:00:58.536Z,1.11
2022-08-07T07:15:51.746Z,2.00
2022-08-07T07:30:43.535Z,1.73
2022-08-07T07:46:40.245Z,1.39
2022-08-07T08:00:34.271Z,2.11
2022-08-07T08:15:23.188Z,2.21
2022-08-07T08:30:14.280Z,2.11
2022-08-07T08:45:26.862Z,1.86
2022-08-07T09:00:19.126Z,1.84
2022-08-07T09:16:21.901Z,1.80
2022-08-07T09:30:20.664Z,1.60
2022-08-07T09:47:24.789Z,1.69
2022-08-07T10:01:03.669Z,1.26
2022-08-07T10:32:07.523Z,1.27
2022-08-07T10:47:15.720Z,1.10
2022-08-07T11:02:33.129Z,1.10
2022-08-07T11:17:11.209Z,1.22
2022-08-07T11:32:06.434Z,1.09
2022-08-07T11:47:18.096Z,0.94
2022-08-07T12:02:20.603Z,1.08
2022-08-07T12:17:19.886Z,1.00
2022-08-07T12:32:12.062Z,1.10
2022-08-07T13:18:00.220Z,1.09
2022-08-07T13:34:30.113Z,1.00
2022-08-07T13:48:27.534Z,0.90
2022-08-07T14:03:29.917Z,0.80
2022-08-07T14:18:28.463Z,0.72
2022-08-07T14:33:23.343Z,0.80
2022-08-07T14:48:19.665Z,0.90
2022-08-07T15:03:18.608Z,0.94
2022-08-07T15:18:02.489Z,0.72
2022-08-07T15:33:04.056Z,0.80
2022-08-07T15:48:00.999Z,0.80
2022-08-07T16:02:46.585Z,0.82
2022-08-07T16:18:02.393Z,0.90
2022-08-07T16:34:02.105Z,0.80
2022-08-07T16:48:09.086Z,0.91
2022-08-07T18:04:24.577Z,1.10
2022-08-07T18:21:09.767Z,1.02
2022-08-07T18:34:37.649Z,1.26
2022-08-07T18:50:32.404Z,1.20
2022-08-07T19:04:39.778Z,1.39
2022-08-07T19:19:41.596Z,1.27
2022-08-07T19:34:38.691Z,1.33
2022-08-07T19:49:56.574Z,1.27
2022-08-07T20:04:31.424Z,1.39
2022-08-07T20:19:10.058Z,1.40
2022-08-07T20:34:01.398Z,1.58
2022-08-07T21:04:18.681Z,1.80
2022-08-07T21:18:46.468Z,1.30
2022-08-07T21:33:43.535Z,1.37
2022-08-07T21:48:42.544Z,1.20
2022-08-07T22:03:38.161Z,1.10
2022-08-07T22:18:43.968Z,1.54
2022-08-07T22:33:56.958Z,1.11
2022-08-07T22:49:09.588Z,1.30
2022-08-07T23:04:29.886Z,1.20
2022-08-07T23:19:51.506Z,1.15
2022-08-07T23:34:44.343Z,1.27
2022-08-07T23:49:52.865Z,1.46
